Stations météo

réclame
Mon MeteoGroup
Siracusa, Italie (16464): Température de l'air & dewpoint: 19.09.2020 17:00:00 - 25.09.2020 17:00:00 (CEST)Siracusa, Italie (16464): Vitesse du vent: 19.09.2020 17:00:00 - 25.09.2020 17:00:00 (CEST)Siracusa, Italie (16464): Direction du vent: 19.09.2020 17:00:00 - 25.09.2020 17:00:00 (CEST)Siracusa, Italie (16464): reduced air pressure: 19.09.2020 17:00:00 - 25.09.2020 17:00:00 (CEST)Siracusa, Italie (16464): Quantités de précipitations: 19.09.2020 17:00:00 - 25.09.2020 17:00:00 (CEST)
Date & Time tt [°C] td [°C] ff [km/h] ff [knt] dd ppp [hPa] rr [mm]
25.09.2020 17:00:00 30,1 23,7 18 10 SSW 1006,7 -
25.09.2020 16:00:00 28,2 24,6 31 17 SW 1007,4 -
25.09.2020 15:00:00 28,6 23,7 34 18 S 1007,9 -
25.09.2020 14:00:00 29,0 23,6 29 16 WSW 1008,8 0,0
25.09.2020 13:00:00 29,2 22,6 29 16 S 1009,9 -
25.09.2020 12:00:00 28,4 22,8 26 14 W 1010,9 -
25.09.2020 11:00:00 28,9 20,8 15 8 SW 1011,7 -
25.09.2020 10:00:00 27,6 16,5 4 2 SW 1011,9 -
25.09.2020 09:00:00 24,5 15,9 8 4 SSW 1011,8 -
25.09.2020 08:00:00 20,0 14,3 5 3 SW 1012,4 0,0
25.09.2020 07:00:00 20,1 14,6 5 3 SSW 1012,4 -
25.09.2020 06:00:00 19,5 13,6 5 3 SW 1012,8 -
25.09.2020 05:00:00 19,8 13,4 5 3 SSW 1013,2 -
25.09.2020 04:00:00 20,0 14,7 2 1 SW 1013,2 -
25.09.2020 03:00:00 20,3 15,9 4 2 SSW 1013,9 -
25.09.2020 02:00:00 20,9 16,2 2 1 SSW 1014,2 0,0
25.09.2020 01:00:00 21,9 16,5 4 2 SSW 1014,6 -
25.09.2020 00:00:00 23,6 18,2 2 1 SW 1015,0 -
24.09.2020 23:00:00 25,1 19,9 5 3 SW 1015,4 -
24.09.2020 22:00:00 - - - - - - -
24.09.2020 21:00:00 26,6 16,8 2 1 W 1015,1 -
24.09.2020 20:00:00 27,5 16,7 5 3 SSW 1014,4 0,0
24.09.2020 19:00:00 - - - - - - -
24.09.2020 18:00:00 27,7 22,4 21 11 SSW 1014,2 -
24.09.2020 17:00:00 27,3 22,9 24 13 SSW 1014,7 -
24.09.2020 16:00:00 27,9 21,4 21 11 WNW 1015,2 -
24.09.2020 15:00:00 28,4 21,6 13 7 SW 1015,1 -
24.09.2020 14:00:00 28,3 19,2 9 5 WNW 1015,4 0,0
24.09.2020 13:00:00 27,4 18,3 9 5 W 1015,6 -
24.09.2020 12:00:00 28,2 18,0 8 4 W 1015,8 -
24.09.2020 11:00:00 27,6 18,3 4 2 W 1015,6 -
24.09.2020 10:00:00 26,6 20,4 5 3 WNW 1015,6 -
24.09.2020 09:00:00 24,5 21,0 4 2 SSW 1015,5 -
24.09.2020 08:00:00 23,3 19,4 8 4 SW 1015,2 0,0
24.09.2020 07:00:00 24,2 19,8 5 3 WNW 1015,0 -
24.09.2020 06:00:00 24,3 21,4 5 3 W 1014,6 -
24.09.2020 05:00:00 22,5 19,2 2 1 SW 1014,2 -
24.09.2020 04:00:00 22,8 19,3 2 1 SSW 1013,8 -
24.09.2020 03:00:00 22,7 19,2 4 2 SW 1013,6 -
24.09.2020 02:00:00 23,4 19,3 4 2 SSW 1013,8 0,0
24.09.2020 01:00:00 24,0 20,9 9 5 SSW 1014,2 -
24.09.2020 00:00:00 22,6 18,3 0 0 N 1014,7 -
23.09.2020 23:00:00 23,9 20,6 5 3 WSW 1014,6 -
23.09.2020 22:00:00 22,2 18,9 5 3 SSW 1014,0 -
23.09.2020 21:00:00 22,4 19,1 5 3 SW 1013,7 -
23.09.2020 20:00:00 22,8 19,5 5 3 SSW 1014,1 0,0
23.09.2020 19:00:00 22,9 19,6 9 5 W 1013,4 -
23.09.2020 18:00:00 27,3 24,5 11 6 WNW 1011,5 -
23.09.2020 17:00:00 27,4 24,2 8 4 W 1012,1 -
23.09.2020 16:00:00 27,9 23,2 8 4 W 1012,6 -
23.09.2020 15:00:00 28,0 24,4 5 3 W 1012,9 -
23.09.2020 14:00:00 28,1 24,3 9 5 SW 1013,4 0,0
23.09.2020 13:00:00 28,0 24,4 9 5 SW 1013,8 -
23.09.2020 12:00:00 27,4 23,8 11 6 SW 1014,1 -
23.09.2020 11:00:00 27,8 23,6 5 3 SSW 1014,6 -
23.09.2020 10:00:00 26,9 23,7 4 2 SW 1014,8 -
23.09.2020 09:00:00 24,4 23,5 0 0 N 1014,7 -
23.09.2020 08:00:00 21,5 18,8 2 1 W 1014,7 0,0
23.09.2020 07:00:00 21,4 18,1 2 1 W 1014,2 -
23.09.2020 06:00:00 21,8 18,3 2 1 W 1014,5 -
23.09.2020 05:00:00 22,7 19,2 0 0 N 1014,7 -
23.09.2020 04:00:00 22,4 18,3 4 2 W 1015,1 -
23.09.2020 03:00:00 23,0 18,7 2 1 W 1015,5 -
23.09.2020 02:00:00 23,2 18,7 2 1 W 1015,6 0,0
23.09.2020 01:00:00 23,1 19,2 4 2 W 1015,9 -
23.09.2020 00:00:00 23,3 20,0 4 2 W 1016,2 -
22.09.2020 23:00:00 24,9 21,6 4 2 SW 1016,4 -
22.09.2020 22:00:00 - - - - - - -
22.09.2020 21:00:00 26,1 22,7 4 2 SW 1016,6 -
22.09.2020 20:00:00 26,6 22,6 16 9 SW 1015,7 0,0
22.09.2020 19:00:00 27,1 22,4 16 9 WNW 1015,8 -
22.09.2020 18:00:00 28,1 21,8 21 11 SSW 1015,8 -
22.09.2020 17:00:00 28,2 22,8 31 17 W 1015,6 -
22.09.2020 16:00:00 27,6 22,5 35 19 SW 1015,5 -
22.09.2020 15:00:00 27,7 22,1 41 22 WNW 1015,9 -
22.09.2020 14:00:00 28,0 23,1 35 19 SW 1016,4 0,0
22.09.2020 13:00:00 28,0 23,1 22 12 SW 1017,0 -
22.09.2020 12:00:00 28,6 21,6 16 9 WSW 1016,7 -
22.09.2020 11:00:00 28,4 20,1 5 3 SSW 1016,9 -
22.09.2020 10:00:00 27,2 21,9 2 1 SSW 1017,1 -
22.09.2020 09:00:00 24,2 20,1 2 1 SSW 1016,7 -
22.09.2020 08:00:00 21,7 17,8 4 2 SW 1016,6 0,0
22.09.2020 07:00:00 21,7 17,2 5 3 SSW 1016,3 -
22.09.2020 06:00:00 22,3 17,8 4 2 SW 1016,1 -
22.09.2020 05:00:00 22,4 17,5 5 3 S 1016,3 -
22.09.2020 04:00:00 22,9 18,4 5 3 SSW 1016,3 -
22.09.2020 03:00:00 23,6 17,7 4 2 WNW 1016,4 -
22.09.2020 02:00:00 22,7 17,5 4 2 SSW 1016,2 0,0
22.09.2020 01:00:00 23,2 18,7 4 2 SW 1016,2 -
22.09.2020 00:00:00 22,5 16,9 5 3 SSW 1016,3 -
21.09.2020 23:00:00 22,7 17,1 5 3 SSW 1016,1 -
21.09.2020 22:00:00 22,7 17,8 5 3 SSW 1016,5 -
21.09.2020 21:00:00 22,8 17,9 2 1 SW 1017,1 -
21.09.2020 20:00:00 23,2 17,8 22 12 WNW 1017,3 0,0
21.09.2020 19:00:00 23,6 17,0 16 9 WNW 1016,1 -
21.09.2020 18:00:00 26,8 23,2 8 4 WSW 1014,6 -
21.09.2020 17:00:00 27,4 25,0 15 8 WNW 1014,7 -
21.09.2020 16:00:00 28,0 24,4 18 10 SSW 1015,1 -
21.09.2020 15:00:00 27,9 22,6 15 8 SSW 1015,9 -
21.09.2020 14:00:00 29,0 22,2 11 6 SW 1016,2 0,0
21.09.2020 13:00:00 29,0 21,5 8 4 SW 1016,7 -
21.09.2020 12:00:00 28,8 21,3 4 2 WSW 1016,8 -
21.09.2020 11:00:00 28,5 20,7 5 3 SW 1016,8 -
21.09.2020 10:00:00 27,2 20,7 4 2 SW 1016,6 -
21.09.2020 09:00:00 25,0 21,9 4 2 SW 1016,0 -
21.09.2020 08:00:00 21,2 17,7 0 0 N 1015,8 0,0
21.09.2020 07:00:00 20,6 16,6 2 1 SW 1015,3 -
21.09.2020 06:00:00 21,8 18,5 4 2 SW 1015,0 -
21.09.2020 05:00:00 21,7 18,0 5 3 SW 1015,4 -
21.09.2020 04:00:00 22,3 18,6 4 2 SW 1015,4 -
21.09.2020 03:00:00 23,2 19,7 0 0 N 1015,8 -
21.09.2020 02:00:00 23,3 19,8 0 0 N 1016,1 0,0
21.09.2020 01:00:00 23,5 19,8 0 0 N 1016,1 -
21.09.2020 00:00:00 24,4 20,7 0 0 N 1015,9 -
20.09.2020 23:00:00 24,6 20,4 2 1 SW 1015,8 -
20.09.2020 22:00:00 25,1 21,1 5 3 SSW 1015,9 -
20.09.2020 21:00:00 25,7 21,7 9 5 SW 1015,9 -
20.09.2020 20:00:00 25,8 21,6 5 3 SSW 1015,5 0,0
20.09.2020 19:00:00 26,3 21,7 15 8 SW 1015,5 -
20.09.2020 18:00:00 26,8 21,5 18 10 SSW 1015,3 -
20.09.2020 17:00:00 27,7 20,7 16 9 SSW 1015,5 -
20.09.2020 16:00:00 28,5 20,5 11 6 SW 1015,7 -
20.09.2020 15:00:00 27,5 21,5 9 5 W 1015,9 -
20.09.2020 14:00:00 28,0 20,2 8 4 W 1016,2 0,0
20.09.2020 13:00:00 28,0 21,2 8 4 W 1016,7 -
20.09.2020 12:00:00 27,4 20,2 13 7 WNW 1016,6 -
20.09.2020 11:00:00 26,8 21,5 11 6 W 1017,0 -
20.09.2020 10:00:00 26,0 21,2 8 4 W 1017,0 -
20.09.2020 09:00:00 24,9 23,8 11 6 WNW 1016,6 -
20.09.2020 08:00:00 21,3 18,8 4 2 SW 1016,2 0,0
20.09.2020 07:00:00 20,6 17,5 4 2 SW 1016,0 -
20.09.2020 06:00:00 20,4 16,8 2 1 SW 1015,9 -
20.09.2020 05:00:00 20,5 16,5 4 2 SW 1015,9 -
20.09.2020 04:00:00 20,7 16,4 2 1 SW 1016,0 -
20.09.2020 03:00:00 21,4 16,9 2 1 SW 1016,2 -
20.09.2020 02:00:00 21,4 16,7 4 2 SW 1016,5 0,0
20.09.2020 01:00:00 22,0 17,5 2 1 SW 1016,7 -
20.09.2020 00:00:00 22,5 17,6 5 3 SW 1016,7 -
19.09.2020 23:00:00 23,6 18,4 2 1 SW 1016,7 -
19.09.2020 22:00:00 24,9 19,7 5 3 S 1016,8 -
19.09.2020 21:00:00 25,7 20,4 5 3 SSW 1016,5 -
19.09.2020 20:00:00 26,5 21,0 9 5 SW 1016,0 0,0
19.09.2020 19:00:00 27,3 21,8 13 7 SW 1015,9 -
19.09.2020 18:00:00 27,9 21,4 15 8 SSW 1015,8 -
19.09.2020 17:00:00 28,4 20,9 15 8 SW 1015,7 -

tt = Température de l'air
td = dewpoint
ff = Vitesse du vent
dd = Direction du vent
ppp = reduced air pressure
rr = Quantités de précipitations

stations d'obs. à proximité